createdAt,value
2023-04-12T00:01:52.315Z,9.20
2023-04-12T00:04:22.778Z,9.10
2023-04-12T00:06:51.024Z,9.20
2023-04-12T00:09:17.787Z,9.20
2023-04-12T00:11:44.606Z,9.20
2023-04-12T00:14:11.700Z,9.20
2023-04-12T00:16:38.998Z,9.10
2023-04-12T00:19:06.760Z,9.10
2023-04-12T00:21:33.638Z,9.10
2023-04-12T00:24:01.249Z,9.10
2023-04-12T00:26:28.312Z,9.10
2023-04-12T00:28:55.391Z,9.00
2023-04-12T00:31:22.313Z,9.00
2023-04-12T00:33:49.142Z,9.00
2023-04-12T00:36:16.260Z,9.00
2023-04-12T00:38:45.788Z,9.00
2023-04-12T00:41:14.932Z,8.90
2023-04-12T00:43:42.252Z,8.90
2023-04-12T00:46:09.652Z,8.80
2023-04-12T00:48:38.359Z,8.70
2023-04-12T00:51:07.579Z,8.80
2023-04-12T00:53:34.505Z,8.80
2023-04-12T00:56:01.797Z,8.80
2023-04-12T00:58:28.689Z,8.80
2023-04-12T01:00:55.474Z,8.60
2023-04-12T01:03:24.142Z,8.70
2023-04-12T01:06:15.870Z,8.70
2023-04-12T01:08:57.675Z,8.70
2023-04-12T01:11:44.958Z,8.60
2023-04-12T01:14:36.026Z,8.60
2023-04-12T01:17:07.431Z,8.60
2023-04-12T01:20:13.143Z,8.60
2023-04-12T01:23:07.042Z,8.60
2023-04-12T01:26:11.397Z,8.60
2023-04-12T01:28:42.478Z,8.60
2023-04-12T01:31:12.961Z,8.50
2023-04-12T01:33:44.450Z,8.50
2023-04-12T01:36:16.568Z,8.50
2023-04-12T01:38:44.126Z,8.50
2023-04-12T01:41:11.008Z,8.50
2023-04-12T01:43:46.759Z,8.50
2023-04-12T01:46:17.888Z,8.40
2023-04-12T01:48:52.375Z,8.40
2023-04-12T01:51:52.591Z,8.30
2023-04-12T01:54:28.127Z,8.30
2023-04-12T01:56:59.904Z,8.30
2023-04-12T01:59:43.405Z,8.20
2023-04-12T02:02:12.969Z,8.20
2023-04-12T02:04:42.855Z,8.20
2023-04-12T02:07:09.756Z,8.20
2023-04-12T02:09:40.078Z,8.10
2023-04-12T02:12:09.706Z,8.10
2023-04-12T02:14:36.945Z,8.00
2023-04-12T02:17:04.294Z,8.00
2023-04-12T02:19:32.523Z,7.90
2023-04-12T02:21:59.489Z,7.80
2023-04-12T02:24:27.311Z,7.90
2023-04-12T02:26:55.161Z,7.90
2023-04-12T02:29:22.109Z,7.90
2023-04-12T02:31:49.141Z,7.90
2023-04-12T02:34:17.962Z,7.80
2023-04-12T02:36:49.571Z,7.80
2023-04-12T02:39:22.200Z,7.80
2023-04-12T02:41:49.250Z,7.80
2023-04-12T02:44:16.026Z,7.70
2023-04-12T02:46:43.463Z,7.70
2023-04-12T02:49:10.181Z,7.70
2023-04-12T02:51:38.375Z,7.70
2023-04-12T02:54:05.995Z,7.70
2023-04-12T02:56:36.093Z,7.60
2023-04-12T02:59:02.896Z,7.60
2023-04-12T03:01:29.754Z,7.60
2023-04-12T03:03:56.906Z,7.60
2023-04-12T03:06:24.004Z,7.60
2023-04-12T03:08:50.880Z,7.60
2023-04-12T03:11:17.635Z,7.60
2023-04-12T03:13:44.354Z,7.50
2023-04-12T03:16:29.787Z,7.50
2023-04-12T03:18:56.908Z,7.50
2023-04-12T03:21:23.656Z,7.50
2023-04-12T03:23:51.238Z,7.50
2023-04-12T03:26:20.455Z,7.40
2023-04-12T03:28:47.956Z,7.50
2023-04-12T03:31:15.544Z,7.40
2023-04-12T03:33:42.415Z,7.40
2023-04-12T03:36:10.486Z,7.40
2023-04-12T03:38:37.245Z,7.40
2023-04-12T03:41:04.069Z,7.40
2023-04-12T03:43:35.841Z,7.40
2023-04-12T03:46:04.762Z,7.30
2023-04-12T03:48:32.072Z,7.30
2023-04-12T03:50:59.729Z,7.30
2023-04-12T03:53:32.625Z,7.30
2023-04-12T03:55:59.591Z,7.30
2023-04-12T04:00:53.703Z,7.30
2023-04-12T04:03:22.783Z,7.30
2023-04-12T04:05:50.374Z,7.20
2023-04-12T04:08:17.205Z,7.20
2023-04-12T04:10:43.996Z,7.30
2023-04-12T04:13:11.039Z,7.20
2023-04-12T04:18:05.595Z,7.20
2023-04-12T04:20:32.826Z,9.10
2023-04-12T04:22:59.573Z,7.20
2023-04-12T04:25:30.143Z,7.20
2023-04-12T04:27:59.536Z,7.20
2023-04-12T04:30:26.594Z,7.20
2023-04-12T04:32:53.624Z,7.00
2023-04-12T04:35:20.577Z,7.10
2023-04-12T04:37:47.641Z,7.10
2023-04-12T04:40:15.290Z,7.10
2023-04-12T04:42:43.336Z,7.10
2023-04-12T04:45:14.648Z,7.10
2023-04-12T04:47:41.536Z,7.10
2023-04-12T04:50:08.728Z,7.10
2023-04-12T04:52:37.629Z,7.00
2023-04-12T04:55:07.380Z,7.00
2023-04-12T04:57:36.444Z,7.00
2023-04-12T05:00:11.181Z,7.00
2023-04-12T05:02:40.190Z,7.30
2023-04-12T05:05:13.528Z,7.00
2023-04-12T05:07:40.709Z,7.00
2023-04-12T05:10:08.424Z,7.10
2023-04-12T05:12:35.961Z,7.00
2023-04-12T05:15:11.661Z,7.10
2023-04-12T05:17:39.093Z,7.10
2023-04-12T05:20:08.571Z,7.00
2023-04-12T05:22:35.571Z,7.20
2023-04-12T05:25:03.548Z,7.10
2023-04-12T05:27:31.126Z,7.10
2023-04-12T05:32:26.404Z,7.20
2023-04-12T05:34:53.294Z,7.10
2023-04-12T05:37:20.075Z,7.20
2023-04-12T05:39:46.874Z,7.20
2023-04-12T05:42:13.651Z,7.20
2023-04-12T05:44:40.490Z,7.30
2023-04-12T05:47:07.237Z,7.40
2023-04-12T05:49:34.039Z,7.40
2023-04-12T05:52:00.945Z,7.50
2023-04-12T05:54:27.747Z,7.60
2023-04-12T05:56:55.564Z,7.70
2023-04-12T05:59:22.684Z,7.80
2023-04-12T06:01:49.927Z,7.80
2023-04-12T06:04:17.590Z,7.90
2023-04-12T06:06:45.561Z,8.00
2023-04-12T06:09:12.387Z,7.90
2023-04-12T06:11:39.380Z,8.10
2023-04-12T06:14:06.517Z,8.20
2023-04-12T06:16:33.431Z,8.30
2023-04-12T06:19:00.767Z,8.30
2023-04-12T06:21:27.855Z,8.40
2023-04-12T06:23:54.625Z,8.50
2023-04-12T06:26:21.744Z,8.60
2023-04-12T06:28:48.528Z,8.60
2023-04-12T06:31:17.105Z,8.70
2023-04-12T06:33:44.036Z,8.70
2023-04-12T06:36:11.681Z,8.80
2023-04-12T06:38:39.257Z,8.90
2023-04-12T06:41:06.891Z,9.00
2023-04-12T06:43:33.886Z,9.10
2023-04-12T06:46:03.026Z,9.10
2023-04-12T06:48:30.201Z,9.20
2023-04-12T06:50:57.054Z,9.40
2023-04-12T06:53:23.772Z,9.30
2023-04-12T06:55:50.857Z,9.40
2023-04-12T06:58:17.884Z,9.50
2023-04-12T07:00:44.709Z,9.60
2023-04-12T07:05:39.393Z,9.70
2023-04-12T07:08:07.542Z,9.90
2023-04-12T07:10:37.256Z,9.90
2023-04-12T07:13:07.159Z,10.00
2023-04-12T07:15:34.287Z,10.10
2023-04-12T07:18:01.125Z,10.20
2023-04-12T07:20:27.912Z,10.30
2023-04-12T07:22:54.686Z,10.40
2023-04-12T07:25:21.448Z,10.50
2023-04-12T07:27:49.340Z,10.60
2023-04-12T07:30:18.115Z,10.70
2023-04-12T07:32:44.960Z,10.80
2023-04-12T07:35:11.758Z,10.90
2023-04-12T07:37:38.527Z,11.00
2023-04-12T07:40:06.786Z,11.10
2023-04-12T07:42:33.600Z,11.20
2023-04-12T07:45:00.570Z,11.30
2023-04-12T07:47:27.420Z,11.40
2023-04-12T07:49:55.238Z,11.50
2023-04-12T07:52:22.046Z,11.50
2023-04-12T07:54:48.833Z,11.60
2023-04-12T07:57:15.971Z,11.80
2023-04-12T07:59:42.707Z,11.90
2023-04-12T08:02:09.601Z,12.00
2023-04-12T08:04:36.422Z,12.20
2023-04-12T08:07:03.293Z,12.10
2023-04-12T08:09:30.831Z,12.10
2023-04-12T08:11:58.324Z,12.40
2023-04-12T08:14:25.077Z,12.50
2023-04-12T08:16:52.819Z,12.60
2023-04-12T08:19:20.774Z,12.60
2023-04-12T08:21:47.564Z,12.80
2023-04-12T08:24:14.840Z,12.80
2023-04-12T08:26:41.657Z,12.90
2023-04-12T08:29:08.391Z,13.00
2023-04-12T08:31:35.411Z,13.10
2023-04-12T08:34:02.246Z,12.00
2023-04-12T08:36:29.035Z,13.20
2023-04-12T08:39:00.473Z,13.30
2023-04-12T08:41:27.559Z,13.20
2023-04-12T08:43:57.901Z,13.40
2023-04-12T08:46:25.798Z,13.50
2023-04-12T08:48:57.128Z,13.60
2023-04-12T08:51:24.016Z,13.60
2023-04-12T08:53:51.646Z,13.70
2023-04-12T08:56:20.117Z,13.80
2023-04-12T08:58:50.682Z,13.70
2023-04-12T09:01:20.306Z,14.00
2023-04-12T09:03:47.637Z,14.00
2023-04-12T09:06:14.568Z,14.00
2023-04-12T09:08:55.955Z,14.10
2023-04-12T09:11:28.293Z,14.20
2023-04-12T09:13:57.672Z,14.30
2023-04-12T09:16:40.591Z,16.10
2023-04-12T09:19:08.797Z,14.40
2023-04-12T09:21:37.196Z,14.50
2023-04-12T09:24:13.590Z,14.60
2023-04-12T09:26:41.378Z,14.70
2023-04-12T09:29:25.079Z,14.80
2023-04-12T09:32:06.679Z,14.60
2023-04-12T09:34:35.942Z,14.90
2023-04-12T09:37:16.780Z,15.00
2023-04-12T09:39:44.013Z,15.00
2023-04-12T09:42:31.651Z,15.10
2023-04-12T09:45:01.651Z,15.20
2023-04-12T09:47:41.729Z,15.20
2023-04-12T09:50:09.956Z,15.30
2023-04-12T09:52:38.822Z,15.30
2023-04-12T09:55:10.604Z,15.40
2023-04-12T09:57:45.517Z,15.40
2023-04-12T10:00:17.748Z,15.50
2023-04-12T10:02:48.851Z,15.50
2023-04-12T10:05:19.660Z,15.60
2023-04-12T10:07:47.975Z,15.70
2023-04-12T10:10:18.049Z,15.70
2023-04-12T10:12:47.992Z,15.70
2023-04-12T10:15:21.152Z,15.70
2023-04-12T10:17:57.346Z,15.70
2023-04-12T10:20:28.097Z,15.80
2023-04-12T10:22:56.610Z,15.80
2023-04-12T10:25:27.863Z,15.90
2023-04-12T10:27:54.765Z,15.90
2023-04-12T10:30:22.845Z,16.00
2023-04-12T10:33:05.527Z,16.10
2023-04-12T10:36:03.649Z,16.10
2023-04-12T10:38:37.391Z,16.10
2023-04-12T10:41:18.082Z,16.20
2023-04-12T10:43:49.658Z,16.20
2023-04-12T10:46:38.689Z,16.20
2023-04-12T10:49:13.780Z,16.30
2023-04-12T10:52:01.459Z,16.30
2023-04-12T10:54:36.677Z,16.30
2023-04-12T10:57:04.683Z,16.40
2023-04-12T10:59:54.145Z,16.50
2023-04-12T11:02:21.571Z,16.50
2023-04-12T11:05:09.988Z,16.60
2023-04-12T11:07:45.278Z,16.60
2023-04-12T11:10:21.780Z,16.70
2023-04-12T11:12:50.671Z,16.70
2023-04-12T11:15:18.207Z,16.70
2023-04-12T11:17:55.486Z,16.70
2023-04-12T11:20:22.650Z,16.80
2023-04-12T11:22:51.735Z,16.80
2023-04-12T11:25:18.825Z,16.80
2023-04-12T11:27:54.738Z,16.90
2023-04-12T11:30:24.022Z,17.00
2023-04-12T11:32:50.992Z,16.90
2023-04-12T11:35:20.341Z,17.00
2023-04-12T11:37:47.237Z,17.10
2023-04-12T11:40:14.833Z,17.30
2023-04-12T11:42:42.017Z,17.10
2023-04-12T11:45:16.997Z,17.90
2023-04-12T11:47:46.546Z,17.30
2023-04-12T11:50:13.622Z,17.30
2023-04-12T11:52:41.220Z,17.40
2023-04-12T11:55:10.901Z,17.40
2023-04-12T11:57:38.985Z,17.50
2023-04-12T12:00:07.043Z,17.50
2023-04-12T12:02:43.622Z,17.60
2023-04-12T12:05:20.604Z,17.70
2023-04-12T12:07:47.616Z,17.70
2023-04-12T12:10:24.164Z,17.80
2023-04-12T12:13:01.014Z,17.90
2023-04-12T12:15:31.953Z,17.90
2023-04-12T12:17:58.802Z,18.00
2023-04-12T12:20:27.325Z,18.10
2023-04-12T12:22:54.298Z,18.30
2023-04-12T12:25:23.054Z,18.50
2023-04-12T12:27:51.276Z,18.50
2023-04-12T12:30:21.941Z,18.50
2023-04-12T12:32:52.931Z,18.60
2023-04-12T12:35:19.731Z,18.80
2023-04-12T12:37:52.383Z,18.80
2023-04-12T12:40:29.384Z,18.90
2023-04-12T12:42:56.567Z,19.00
2023-04-12T12:45:29.325Z,19.10
2023-04-12T12:48:02.874Z,19.20
2023-04-12T12:50:34.902Z,19.30
2023-04-12T12:53:03.419Z,19.40
2023-04-12T12:55:31.462Z,19.50
2023-04-12T12:58:06.947Z,19.60
2023-04-12T13:00:35.372Z,19.60
2023-04-12T13:03:02.579Z,19.70
2023-04-12T13:05:30.315Z,19.70
2023-04-12T13:07:57.096Z,19.70
2023-04-12T13:10:24.346Z,19.70
2023-04-12T13:12:51.421Z,19.80
2023-04-12T13:15:23.106Z,19.80
2023-04-12T13:17:53.853Z,19.80
2023-04-12T13:20:21.674Z,19.80
2023-04-12T13:22:49.300Z,19.80
2023-04-12T13:25:16.257Z,19.90
2023-04-12T13:27:43.017Z,19.90
2023-04-12T13:30:10.344Z,19.90
2023-04-12T13:32:37.760Z,20.00
2023-04-12T13:35:06.390Z,20.10
2023-04-12T13:37:34.376Z,20.10
2023-04-12T13:40:01.149Z,20.10
2023-04-12T13:42:27.991Z,20.20
2023-04-12T13:44:54.797Z,20.10
2023-04-12T13:47:22.411Z,20.10
2023-04-12T13:49:49.617Z,20.10
2023-04-12T13:52:16.403Z,20.20
2023-04-12T13:54:43.254Z,20.10
2023-04-12T13:57:10.437Z,20.10
2023-04-12T13:59:37.267Z,20.10
2023-04-12T14:02:04.148Z,20.10
2023-04-12T14:04:31.995Z,20.10
2023-04-12T14:06:59.661Z,20.10
2023-04-12T14:09:31.574Z,20.10
2023-04-12T14:12:01.504Z,20.10
2023-04-12T14:14:28.409Z,20.10
2023-04-12T14:17:01.818Z,20.00
2023-04-12T14:19:29.039Z,20.00
2023-04-12T14:21:56.695Z,20.00
2023-04-12T14:24:23.803Z,19.90
2023-04-12T14:26:50.598Z,19.80
2023-04-12T14:29:17.462Z,19.80
2023-04-12T14:31:44.304Z,19.70
2023-04-12T14:34:11.360Z,19.60
2023-04-12T14:36:38.217Z,19.60
2023-04-12T14:39:09.383Z,19.50
2023-04-12T14:41:37.432Z,19.40
2023-04-12T14:44:04.226Z,19.40
2023-04-12T14:46:31.838Z,19.40
2023-04-12T14:49:01.057Z,19.30
2023-04-12T14:51:29.056Z,19.20
2023-04-12T14:53:56.295Z,19.20
2023-04-12T14:56:31.063Z,19.10
2023-04-12T14:58:58.481Z,19.10
2023-04-12T15:01:25.776Z,19.00
2023-04-12T15:03:53.615Z,19.00
2023-04-12T15:06:23.600Z,18.80
2023-04-12T15:08:55.039Z,18.80
2023-04-12T15:11:26.556Z,18.70
2023-04-12T15:13:54.695Z,18.70
2023-04-12T15:16:21.969Z,18.60
2023-04-12T15:18:51.116Z,18.60
2023-04-12T15:21:18.059Z,18.60
2023-04-12T15:23:45.033Z,18.50
2023-04-12T15:26:14.810Z,18.50
2023-04-12T15:31:09.617Z,18.40
2023-04-12T15:33:37.278Z,18.30
2023-04-12T15:36:05.584Z,18.20
2023-04-12T15:38:32.567Z,18.10
2023-04-12T15:41:02.539Z,17.90
2023-04-12T15:43:29.467Z,18.00
2023-04-12T15:45:56.665Z,17.90
2023-04-12T15:48:25.603Z,17.80
2023-04-12T15:50:53.857Z,17.70
2023-04-12T15:53:24.075Z,17.60
2023-04-12T15:55:57.654Z,17.50
2023-04-12T15:58:26.929Z,17.40
2023-04-12T16:00:53.923Z,17.30
2023-04-12T16:03:23.419Z,17.20
2023-04-12T16:05:54.225Z,17.20
2023-04-12T16:08:22.292Z,17.20
2023-04-12T16:10:50.846Z,17.20
2023-04-12T16:13:18.293Z,17.10
2023-04-12T16:15:46.024Z,17.10
2023-04-12T16:18:13.165Z,17.10
2023-04-12T16:20:42.726Z,17.00
2023-04-12T16:23:09.844Z,17.00
2023-04-12T16:25:36.709Z,16.90
2023-04-12T16:28:04.033Z,16.90
2023-04-12T16:30:35.049Z,16.80
2023-04-12T16:33:02.030Z,16.80
2023-04-12T16:35:28.924Z,16.70
2023-04-12T16:37:55.742Z,16.60
2023-04-12T16:40:24.513Z,16.60
2023-04-12T16:42:51.605Z,16.50
2023-04-12T16:45:18.414Z,16.50
2023-04-12T16:47:48.020Z,16.30
2023-04-12T16:50:15.474Z,16.30
2023-04-12T16:52:42.436Z,16.30
2023-04-12T16:55:13.450Z,16.30
2023-04-12T16:57:42.911Z,16.10
2023-04-12T17:00:22.674Z,16.10
2023-04-12T17:02:52.053Z,16.10
2023-04-12T17:05:21.022Z,16.00
2023-04-12T17:07:51.418Z,16.00
2023-04-12T17:10:21.662Z,15.90
2023-04-12T17:12:51.821Z,15.90
2023-04-12T17:15:21.808Z,15.90
2023-04-12T17:17:52.484Z,15.80
2023-04-12T17:20:22.358Z,15.80
2023-04-12T17:22:50.037Z,15.80
2023-04-12T17:25:18.733Z,15.70
2023-04-12T17:27:47.319Z,15.70
2023-04-12T17:30:16.381Z,15.70
2023-04-12T17:32:45.080Z,15.60
2023-04-12T17:35:13.126Z,15.60
2023-04-12T17:37:40.726Z,15.60
2023-04-12T17:40:11.203Z,15.50
2023-04-12T17:42:40.460Z,15.50
2023-04-12T17:45:08.998Z,15.50
2023-04-12T17:47:36.108Z,15.50
2023-04-12T17:50:03.238Z,15.40
2023-04-12T17:52:30.307Z,15.40
2023-04-12T17:54:57.986Z,15.40
2023-04-12T17:57:24.758Z,15.40
2023-04-12T17:59:51.818Z,15.30
2023-04-12T18:02:18.784Z,15.30
2023-04-12T18:04:46.293Z,15.40
2023-04-12T18:07:13.433Z,15.30
2023-04-12T18:09:44.567Z,15.30
2023-04-12T18:12:11.890Z,15.20
2023-04-12T18:14:40.474Z,15.20
2023-04-12T18:17:08.114Z,15.20
2023-04-12T18:19:34.991Z,15.20
2023-04-12T18:22:01.942Z,15.20
2023-04-12T18:24:28.748Z,15.10
2023-04-12T18:26:56.960Z,15.20
2023-04-12T18:29:23.700Z,15.10
2023-04-12T18:31:50.512Z,15.20
2023-04-12T18:34:18.991Z,15.10
2023-04-12T18:36:45.869Z,15.10
2023-04-12T18:39:12.651Z,15.10
2023-04-12T18:41:40.911Z,15.10
2023-04-12T18:44:09.109Z,15.10
2023-04-12T18:46:36.282Z,15.10
2023-04-12T18:49:04.532Z,15.10
2023-04-12T18:51:32.869Z,15.00
2023-04-12T18:54:00.695Z,15.10
2023-04-12T18:56:27.914Z,15.00
2023-04-12T18:58:56.950Z,15.00
2023-04-12T19:01:25.788Z,15.00
2023-04-12T19:03:52.924Z,15.00
2023-04-12T19:06:19.977Z,15.00
2023-04-12T19:08:46.919Z,15.00
2023-04-12T19:11:13.857Z,15.00
2023-04-12T19:13:40.590Z,15.00
2023-04-12T19:16:07.898Z,14.90
2023-04-12T19:18:35.171Z,15.00
2023-04-12T19:21:05.477Z,15.00
2023-04-12T19:23:32.334Z,15.00
2023-04-12T19:26:00.162Z,15.00
2023-04-12T19:28:27.979Z,15.00
2023-04-12T19:30:57.568Z,14.90
2023-04-12T19:33:24.858Z,14.90
2023-04-12T19:35:52.230Z,13.10
2023-04-12T19:38:21.133Z,14.90
2023-04-12T19:43:21.051Z,14.80
2023-04-12T19:45:48.060Z,14.80
2023-04-12T19:48:14.898Z,14.80
2023-04-12T19:50:42.804Z,14.60
2023-04-12T19:53:11.033Z,14.80
2023-04-12T19:55:38.878Z,15.10
2023-04-12T19:58:06.119Z,14.70
2023-04-12T20:00:32.871Z,14.70
2023-04-12T20:02:59.845Z,14.70
2023-04-12T20:05:29.258Z,14.70
2023-04-12T20:07:56.260Z,14.70
2023-04-12T20:10:23.097Z,14.70
2023-04-12T20:12:50.024Z,14.60
2023-04-12T20:15:17.807Z,14.60
2023-04-12T20:17:45.853Z,14.60
2023-04-12T20:20:16.004Z,14.50
2023-04-12T20:22:45.941Z,14.40
2023-04-12T20:25:14.323Z,14.40
2023-04-12T20:27:41.252Z,14.40
2023-04-12T20:30:11.006Z,14.30
2023-04-12T20:32:37.872Z,14.30
2023-04-12T20:35:05.168Z,14.20
2023-04-12T20:37:32.661Z,14.20
2023-04-12T20:39:59.484Z,14.10
2023-04-12T20:42:26.930Z,14.10
2023-04-12T20:44:53.813Z,14.00
2023-04-12T20:47:21.159Z,14.10
2023-04-12T20:49:47.900Z,14.00
2023-04-12T20:52:18.751Z,13.80
2023-04-12T20:54:45.792Z,14.00
2023-04-12T20:57:14.020Z,13.90
2023-04-12T20:59:40.975Z,13.90
2023-04-12T21:02:09.222Z,13.90
2023-04-12T21:04:36.600Z,13.90
2023-04-12T21:07:04.812Z,13.90
2023-04-12T21:09:31.645Z,13.90
2023-04-12T21:11:59.106Z,13.90
2023-04-12T21:14:25.910Z,13.90
2023-04-12T21:16:52.900Z,13.90
2023-04-12T21:19:19.628Z,13.90
2023-04-12T21:21:46.646Z,13.90
2023-04-12T21:24:13.710Z,13.90
2023-04-12T21:26:42.767Z,13.80
2023-04-12T21:29:10.481Z,13.80
2023-04-12T21:31:39.096Z,13.80
2023-04-12T21:34:07.516Z,13.80
2023-04-12T21:36:34.297Z,13.70
2023-04-12T21:39:01.394Z,13.70
2023-04-12T21:41:29.810Z,13.60
2023-04-12T21:43:56.710Z,13.60
2023-04-12T21:46:27.759Z,13.60
2023-04-12T21:48:54.944Z,13.50
2023-04-12T21:51:23.426Z,13.60
2023-04-12T21:53:50.188Z,13.50
2023-04-12T21:56:16.999Z,13.50
2023-04-12T21:58:43.724Z,13.50
2023-04-12T22:01:10.546Z,13.50
2023-04-12T22:03:37.455Z,13.40
2023-04-12T22:06:05.335Z,13.40
2023-04-12T22:08:33.102Z,13.40
2023-04-12T22:11:00.335Z,13.40
2023-04-12T22:13:27.595Z,13.40
2023-04-12T22:15:54.382Z,13.40
2023-04-12T22:18:21.313Z,13.40
2023-04-12T22:20:48.252Z,13.40
2023-04-12T22:23:17.897Z,13.40
2023-04-12T22:25:46.091Z,13.40
2023-04-12T22:28:12.858Z,13.30
2023-04-12T22:30:39.827Z,13.30
2023-04-12T22:33:08.394Z,13.30
2023-04-12T22:35:36.455Z,13.30
2023-04-12T22:38:04.122Z,13.30
2023-04-12T22:40:30.888Z,13.40
2023-04-12T22:42:58.088Z,13.30
2023-04-12T22:45:25.072Z,13.30
2023-04-12T22:47:52.934Z,13.30
2023-04-12T22:50:20.342Z,13.40
2023-04-12T22:52:50.161Z,13.40
2023-04-12T22:55:18.172Z,13.30
2023-04-12T22:57:45.078Z,13.30
2023-04-12T23:00:15.853Z,13.30
2023-04-12T23:02:43.967Z,13.30
2023-04-12T23:05:12.140Z,13.30
2023-04-12T23:07:41.195Z,13.30
2023-04-12T23:10:09.064Z,13.30
2023-04-12T23:12:37.331Z,13.20
2023-04-12T23:15:05.706Z,13.20
2023-04-12T23:17:32.873Z,13.20
2023-04-12T23:20:02.109Z,13.10
2023-04-12T23:22:55.131Z,13.10
2023-04-12T23:25:39.750Z,13.10
2023-04-12T23:28:15.183Z,13.10
2023-04-12T23:30:48.646Z,13.10
2023-04-12T23:33:18.507Z,13.10
2023-04-12T23:35:49.331Z,13.10
2023-04-12T23:38:23.219Z,13.20
2023-04-12T23:40:53.802Z,13.20
2023-04-12T23:43:25.413Z,13.20
2023-04-12T23:45:52.743Z,13.20
2023-04-12T23:48:19.629Z,13.20
2023-04-12T23:50:46.724Z,13.10
2023-04-12T23:53:14.110Z,13.10
2023-04-12T23:55:47.429Z,13.10
2023-04-12T23:58:15.052Z,13.10
